Gilbert, SC (29054)

7:51 PM EDT on August 28, 2015 (GMT -0400)
Gilbert | | Change Station
CLOSE
Current Station
Personal Weather Station
Location: Gilbert, SC
Elevation: 530 ft
Nearby Weather Stations

Elev 530 ft 33.96 °N, 81.37 °W | Updated 1 minute ago

Partly Cloudy
Partly Cloudy
78.5 °F
Feels Like 80 °F
N
0.0
Wind Variable Wind from SSW

Today
High -- | Low -- °F
--% Chance of Precip.
Yesterday
High -- | Low -- °F
Precip. -- in
6:56 AM 7:56 PM
Waxing Gibbous, 99% visible
Pressure 30.08 in
Visibility 10.0 miles
Clouds Mostly Cloudy 15000 ft
Heat Index 80 °F
Dew Point 63 °F
Humidity 59%
Rainfall 0.00 in
Snow Depth Not available.
UV 0 out of 12
Pollen 8.10 out of 12
Air Quality Not available.
Flu Activity Not available.
METAR KCAE 282256Z 11009KT 10SM BKN150 29/16 A3009 RMK AO2 SLP185 T02940161
Pressure 30.08 in
Visibility 10.0 miles
Clouds Mostly Cloudy 15000 ft
Heat Index 80 °F
Dew Point 63 °F
Humidity 59%
Rainfall 0.00 in
Snow Depth Not available.
UV 0 out of 12
Pollen 8.10 out of 12
Air Quality Not available.
Flu Activity Not available.
METAR KCAE 282256Z 11009KT 10SM BKN150 29/16 A3009 RMK AO2 SLP185 T02940161

10-Day Weather Forecast

×

Almanac

Astronomy

Aug. 28, 2015 Rise Set
Actual Time
Civil Twilight
Nautical Twilight
Astronomical Twilight
Moon
Length of Visible Light
Length of Day
Tomorrow will be .
, % of the Moon is Illuminated

Today's Extremes

State Highs State Lows

Community

WunderPhotos

Upload Photos

1,850,532 photos uploaded!

WunderBlogs® & News

Nearby

Air Quality

  Air Quality AQ Index Pollutant
Not available.

Snow Depth

Station Depth Elevation

Earthquake Activity

City Distance Mag. Time & Date
Minimum magnitude displayed is 2.5.

Coastal Water Temperatures

Place Temperature

Stations

Nearby Weather Stations

Station Location Temp. Windchill Dew Point Humidity Wind Precip. Elev Updated Type